Time;durP1;ratioP1;P1;durP2;ratioP2;P2;SDS_P1;SDS_P2;PMS_P1;PMS_P2;Temp;Humidity;BMP_temperature;BMP_pressure;BME280_temperature;BME280_humidity;BME280_pressure;Samples;Min_cycle;Max_cycle;Signal;HPM_P1;HPM_P2
2022/05/20 00:00:17;;;;;;;5.83;2.58;;;;;;;10.38;62.88;100110.05;1673241;86;21051;-84
2022/05/20 00:02:46;;;;;;;6.55;2.90;;;;;;;10.35;61.00;100107.05;1671990;85;20972;-83
2022/05/20 00:05:13;;;;;;;8.70;2.60;;;;;;;10.32;62.10;100110.96;1669888;86;21016;-83
2022/05/20 00:07:40;;;;;;;6.17;2.67;;;;;;;10.30;62.98;100106.21;1671804;85;21023;-84
2022/05/20 00:10:11;;;;;;;6.53;3.00;;;;;;;10.27;63.31;100097.13;1672794;86;21000;-83
2022/05/20 00:12:39;;;;;;;7.85;2.98;;;;;;;10.25;62.33;100096.27;1672150;86;21075;-82
2022/05/20 00:15:09;;;;;;;11.12;3.00;;;;;;;10.23;63.23;100099.77;1669898;85;21142;-82
2022/05/20 00:17:36;;;;;;;10.10;2.83;;;;;;;10.20;62.51;100101.08;1673190;86;21515;-83
2022/05/20 00:20:09;;;;;;;6.58;2.90;;;;;;;10.13;63.14;100099.83;1672933;86;21079;-83
2022/05/20 00:22:35;;;;;;;6.37;2.90;;;;;;;10.11;62.17;100111.97;1673096;86;21027;-82
2022/05/20 00:27:47;;;;;;;7.70;3.08;;;;;;;10.04;64.85;100105.08;1675387;82;21049;-83
2022/05/20 00:30:14;;;;;;;7.00;2.77;;;;;;;10.02;66.72;100108.56;1674957;82;21058;-83
2022/05/20 00:32:41;;;;;;;6.40;2.72;;;;;;;9.99;64.93;100112.47;1673438;86;21075;-83
2022/05/20 00:35:09;;;;;;;5.80;2.58;;;;;;;9.94;62.64;100111.20;1668134;85;21099;-82
2022/05/20 00:37:37;;;;;;;9.70;2.60;;;;;;;9.89;65.16;100107.35;1671012;85;21059;-83
2022/05/20 00:40:05;;;;;;;4.97;2.75;;;;;;;9.85;63.02;100112.14;1673081;84;21083;-83
2022/05/20 00:42:34;;;;;;;5.47;2.42;;;;;;;9.82;64.77;100114.73;1672972;86;20977;-82
2022/05/20 00:45:01;;;;;;;5.53;2.52;;;;;;;9.79;64.69;100117.78;1673121;86;21095;-82
2022/05/20 00:47:27;;;;;;;7.58;2.77;;;;;;;9.75;63.91;100120.41;1670783;85;21013;-82
2022/05/20 00:49:57;;;;;;;10.23;2.77;;;;;;;9.72;63.80;100119.12;1668205;86;21037;-83
2022/05/20 00:52:27;;;;;;;7.90;2.98;;;;;;;9.70;63.85;100118.27;1672814;86;21023;-83
2022/05/20 00:54:59;;;;;;;7.15;2.35;;;;;;;9.68;64.02;100109.62;1673516;86;21111;-82
2022/05/20 00:57:33;;;;;;;6.37;3.15;;;;;;;9.66;65.55;100117.85;1669670;86;20991;-83
2022/05/20 01:00:09;;;;;;;4.22;2.22;;;;;;;9.66;63.49;100112.66;1671673;86;21016;-83
2022/05/20 01:02:38;;;;;;;10.10;2.80;;;;;;;9.65;67.56;100107.06;1674191;86;21064;-83
2022/05/20 01:05:19;;;;;;;7.62;3.10;;;;;;;9.65;69.85;100110.95;1674017;86;21091;-82
2022/05/20 01:07:46;;;;;;;5.33;2.42;;;;;;;9.63;67.59;100117.89;1661120;86;21072;-83
2022/05/20 01:10:13;;;;;;;5.80;2.50;;;;;;;9.65;68.22;100108.77;1673179;85;21059;-83
2022/05/20 01:12:40;;;;;;;6.53;2.50;;;;;;;9.65;67.80;100113.95;1672523;85;21063;-83
2022/05/20 01:15:08;;;;;;;14.58;2.98;;;;;;;9.67;67.96;100126.09;1670739;85;21075;-82
2022/05/20 01:17:37;;;;;;;12.10;3.00;;;;;;;9.69;67.23;100126.94;1668810;86;21052;-83
2022/05/20 01:20:09;;;;;;;15.80;2.75;;;;;;;9.71;68.89;100117.85;1668998;86;21035;-82
2022/05/20 01:22:55;;;;;;;14.25;3.30;;;;;;;9.73;67.44;100122.16;1671517;86;21052;-83
2022/05/20 01:25:23;;;;;;;9.78;2.70;;;;;;;9.73;65.39;100120.86;1672893;85;21080;-82
2022/05/20 01:27:50;;;;;;;18.10;2.90;;;;;;;9.72;66.02;100119.12;1672050;86;21080;-82
2022/05/20 01:30:21;;;;;;;31.50;4.90;;;;;;;9.72;66.73;100115.22;1668393;86;21095;-83
2022/05/20 01:32:48;;;;;;;38.25;4.37;;;;;;;9.74;67.81;100116.52;1668574;86;21031;-82
2022/05/20 01:35:23;;;;;;;43.02;6.67;;;;;;;9.75;68.56;100125.61;1673491;86;21027;-82
2022/05/20 01:37:49;;;;;;;63.85;14.28;;;;;;;9.74;65.90;100121.71;1670145;86;21047;-81
2022/05/20 01:40:16;;;;;;;45.67;12.03;;;;;;;9.70;66.91;100128.65;1663344;85;21040;-82
2022/05/20 01:42:56;;;;;;;47.67;11.48;;;;;;;9.66;65.13;100120.45;1661535;86;21104;-83
2022/05/20 01:45:37;;;;;;;37.67;10.50;;;;;;;9.59;64.55;100125.27;1661458;86;21040;-83
2022/05/20 01:48:18;;;;;;;30.05;9.05;;;;;;;9.50;63.62;100125.30;1665250;86;21088;-82
2022/05/20 01:50:55;;;;;;;20.57;6.33;;;;;;;9.44;64.74;100135.26;1665244;86;21079;-82
2022/05/20 01:53:42;;;;;;;9.45;3.35;;;;;;;9.41;66.58;100133.11;1666247;86;21261;-83
2022/05/20 01:56:29;;;;;;;6.90;2.95;;;;;;;9.34;66.44;100140.91;1666392;86;21141;-83
2022/05/20 01:59:07;;;;;;;20.50;7.40;;;;;;;9.26;65.56;100146.56;1666775;86;21071;-83
2022/05/20 02:01:41;;;;;;;40.20;13.25;;;;;;;9.19;66.54;100142.69;1654182;86;21555;-82
2022/05/20 02:04:16;;;;;;;14.35;5.95;;;;;;;9.11;67.37;100146.59;1657312;86;21000;-81
2022/05/20 02:06:48;;;;;;;11.35;4.58;;;;;;;9.06;67.90;100147.92;1664205;86;20984;-82
2022/05/20 02:09:32;;;;;;;12.05;4.58;;;;;;;9.02;67.75;100139.71;1666435;86;21035;-83
2022/05/20 02:11:58;;;;;;;11.33;4.42;;;;;;;9.00;68.99;100147.08;1663735;86;21028;-83
2022/05/20 02:14:49;;;;;;;15.45;4.80;;;;;;;8.98;67.86;100143.62;1661845;86;21076;-82
2022/05/20 02:17:31;;;;;;;16.85;6.00;;;;;;;8.95;67.21;100137.58;1659884;86;21085;-83
2022/05/20 02:20:11;;;;;;;26.93;9.85;;;;;;;8.95;69.92;100143.17;1622281;86;21012;-82
2022/05/20 02:22:43;;;;;;;31.52;10.75;;;;;;;8.93;69.87;100134.53;1666254;86;21028;-82
2022/05/20 02:25:15;;;;;;;25.35;9.43;;;;;;;8.92;68.42;100143.20;1661504;86;21571;-82
2022/05/20 02:27:46;;;;;;;11.75;4.53;;;;;;;8.87;69.20;100143.21;1664916;86;21023;-82
2022/05/20 02:30:20;;;;;;;19.82;7.83;;;;;;;8.85;69.40;100141.02;1662051;86;21083;-83
2022/05/20 02:32:57;;;;;;;13.50;5.72;;;;;;;8.83;70.20;100137.56;1661186;86;21020;-82
2022/05/20 02:35:24;;;;;;;15.70;4.60;;;;;;;8.82;69.16;100143.64;1621552;87;21060;-82
2022/05/20 02:37:51;;;;;;;9.08;3.15;;;;;;;8.83;69.60;100149.68;1640542;87;21067;-83
2022/05/20 02:40:20;;;;;;;9.43;3.25;;;;;;;8.83;70.80;100147.94;1650995;85;21083;-83
2022/05/20 02:42:46;;;;;;;9.05;3.55;;;;;;;8.85;70.90;100151.39;1672476;86;21086;-82
2022/05/20 02:45:15;;;;;;;6.33;2.77;;;;;;;8.83;70.21;100149.23;1670732;85;21149;-82
2022/05/20 02:47:42;;;;;;;10.08;3.30;;;;;;;8.83;67.70;100150.53;1673323;86;21547;-81
2022/05/20 02:50:11;;;;;;;8.15;3.27;;;;;;;8.81;67.63;100156.16;1655695;85;21095;-82
2022/05/20 02:52:38;;;;;;;11.38;3.00;;;;;;;8.78;71.58;100144.95;1654490;86;21071;-83
2022/05/20 02:55:07;;;;;;;15.13;3.25;;;;;;;8.74;70.39;100146.67;1672857;85;21048;-81
2022/05/20 02:57:35;;;;;;;10.25;2.98;;;;;;;8.71;69.31;100150.55;1672193;85;21048;-82
2022/05/20 03:05:34;;;;;;;14.10;3.08;;;;;;;8.50;68.78;100155.33;1674135;85;21043;-82
2022/05/20 03:08:01;;;;;;;6.70;2.55;;;;;;;8.43;69.24;100156.17;1674067;86;21066;-82
2022/05/20 03:10:28;;;;;;;6.90;2.75;;;;;;;8.35;69.54;100153.53;1674329;85;21036;-83
2022/05/20 03:13:04;;;;;;;5.62;2.52;;;;;;;8.25;69.27;100154.39;1673055;86;20980;-83
2022/05/20 03:15:31;;;;;;;4.75;2.37;;;;;;;8.15;71.27;100158.69;1669449;86;21023;-82
2022/05/20 03:17:58;;;;;;;6.55;2.40;;;;;;;8.09;72.21;100154.80;1670663;86;21067;-81
2022/05/20 03:20:25;;;;;;;5.00;2.37;;;;;;;8.06;71.97;100157.41;1671975;85;21030;-81
2022/05/20 03:22:52;;;;;;;5.67;2.77;;;;;;;7.97;73.57;100160.38;1670386;86;21059;-83
2022/05/20 03:25:20;;;;;;;7.25;3.22;;;;;;;8.02;70.60;100156.52;1674761;86;21023;-81
2022/05/20 03:27:48;;;;;;;10.32;3.12;;;;;;;8.04;73.55;100150.92;1674058;82;21016;-84
2022/05/20 03:30:15;;;;;;;8.15;3.20;;;;;;;8.09;72.10;100150.48;1665353;82;21016;-83
2022/05/20 03:32:42;;;;;;;7.17;3.12;;;;;;;8.14;70.72;100158.28;1663153;83;20988;-84
2022/05/20 03:37:52;;;;;;;16.60;4.10;;;;;;;8.15;73.50;100171.64;1695803;84;21064;-86
2022/05/20 03:40:19;;;;;;;6.97;2.70;;;;;;;8.21;71.66;100166.91;1675687;85;20971;-86
2022/05/20 03:42:45;;;;;;;7.80;3.05;;;;;;;8.25;73.46;100168.64;1694225;84;21016;-85
2022/05/20 03:45:12;;;;;;;7.15;2.92;;;;;;;8.29;74.04;100165.19;1680669;84;21052;-86
2022/05/20 03:47:39;;;;;;;10.38;3.58;;;;;;;8.32;71.26;100168.66;1691485;85;21070;-83
2022/05/20 03:50:06;;;;;;;12.45;3.20;;;;;;;8.32;70.15;100162.18;1692821;84;21547;-88
2022/05/20 03:52:33;;;;;;;8.70;2.80;;;;;;;8.33;70.55;100170.37;1702144;83;21039;-83
2022/05/20 03:54:59;;;;;;;10.43;3.25;;;;;;;8.38;69.54;100164.36;1702105;84;21071;-82
2022/05/20 03:57:26;;;;;;;12.05;3.47;;;;;;;8.38;69.24;100163.06;1696823;84;21026;-83
2022/05/20 03:59:53;;;;;;;11.57;3.65;;;;;;;8.39;69.92;100172.11;1677614;84;21081;-82
2022/05/20 04:02:19;;;;;;;7.10;2.90;;;;;;;8.36;70.07;100173.42;1709103;84;20999;-81
2022/05/20 04:04:50;;;;;;;7.97;3.27;;;;;;;8.38;71.34;100178.61;1709104;84;21099;-83
2022/05/20 04:07:26;;;;;;;13.43;3.77;;;;;;;8.42;69.81;100187.70;1708994;84;20996;-82
2022/05/20 04:09:53;;;;;;;6.08;2.65;;;;;;;8.43;69.65;100180.79;1670632;85;21049;-83
2022/05/20 04:12:34;;;;;;;9.25;3.00;;;;;;;8.43;71.76;100175.16;1708178;83;21003;-81
2022/05/20 04:15:02;;;;;;;6.25;2.72;;;;;;;8.47;69.82;100174.30;1707899;84;21027;-83
2022/05/20 04:17:28;;;;;;;8.65;2.70;;;;;;;8.49;70.45;100178.20;1689359;84;21015;-83
2022/05/20 04:19:55;;;;;;;6.47;2.62;;;;;;;8.55;71.22;100184.27;1656489;86;21063;-81
2022/05/20 04:22:28;;;;;;;9.95;3.05;;;;;;;8.62;69.71;100181.24;1701972;84;21039;-83
2022/05/20 04:24:56;;;;;;;5.60;2.70;;;;;;;8.68;71.27;100175.20;1701788;84;21637;-82
2022/05/20 04:27:23;;;;;;;9.95;3.00;;;;;;;8.76;69.07;100171.73;1702178;84;21004;-82
2022/05/20 04:29:50;;;;;;;6.33;2.72;;;;;;;8.85;70.42;100181.22;1697131;84;21011;-81
2022/05/20 04:32:17;;;;;;;6.40;2.83;;;;;;;8.98;70.42;100182.53;1674221;85;21638;-83
2022/05/20 04:34:43;;;;;;;7.67;3.08;;;;;;;9.11;71.53;100173.43;1674163;84;21035;-82
2022/05/20 04:37:10;;;;;;;9.05;3.12;;;;;;;9.14;71.03;100147.46;1678149;85;21057;-82
2022/05/20 04:39:37;;;;;;;9.28;2.90;;;;;;;9.40;70.38;100162.54;1676753;85;21400;-81
2022/05/20 04:47:35;;;;;;;7.60;3.65;;;;;;;9.84;69.69;100167.54;1701648;84;21064;-83
2022/05/20 04:50:06;;;;;;;7.33;3.50;;;;;;;9.98;69.44;100164.88;1708334;83;21050;-83
2022/05/20 04:52:33;;;;;;;8.15;3.02;;;;;;;10.10;69.18;100164.79;1734383;83;21047;-82
2022/05/20 04:55:00;;;;;;;10.80;3.50;;;;;;;10.20;69.17;100164.75;1736104;82;21125;-82
2022/05/20 04:57:41;;;;;;;10.35;3.70;;;;;;;10.30;69.75;100165.14;1711080;83;21025;-82
2022/05/20 05:00:13;;;;;;;6.72;3.30;;;;;;;10.38;69.06;100160.75;1723309;83;20967;-83
2022/05/20 05:02:40;;;;;;;12.98;3.35;;;;;;;10.46;68.33;100164.59;1736267;82;20942;-84
2022/05/20 05:05:10;;;;;;;6.67;3.40;;;;;;;10.53;67.37;100172.34;1721420;83;20975;-82
2022/05/20 05:07:47;;;;;;;7.45;3.37;;;;;;;10.52;68.67;100178.42;1728925;83;20998;-83
2022/05/20 05:10:18;;;;;;;14.63;3.25;;;;;;;10.51;67.52;100179.28;1723228;83;21046;-84
2022/05/20 05:12:45;;;;;;;9.30;3.30;;;;;;;10.55;68.50;100171.89;1736168;82;21040;-83
2022/05/20 05:15:14;;;;;;;8.28;2.75;;;;;;;10.60;66.85;100170.98;1736112;83;21078;-83
2022/05/20 05:20:28;;;;;;;7.47;2.90;;;;;;;10.72;67.13;100169.17;1718636;83;21052;-83
2022/05/20 05:22:57;;;;;;;9.00;2.87;;;;;;;10.82;66.63;100163.86;1701524;83;21579;-83
2022/05/20 05:25:31;;;;;;;10.00;2.90;;;;;;;10.90;66.69;100169.85;1717342;83;21077;-83
2022/05/20 05:27:58;;;;;;;14.65;3.25;;;;;;;10.95;67.72;100162.44;1736233;82;20966;-83
2022/05/20 05:30:26;;;;;;;9.43;2.72;;;;;;;11.03;67.28;100166.27;1721258;83;21001;-83
2022/05/20 05:32:52;;;;;;;7.62;3.00;;;;;;;11.14;66.13;100157.92;1707573;83;20986;-83
2022/05/20 05:35:24;;;;;;;9.40;3.35;;;;;;;11.25;66.12;100148.69;1713778;83;21085;-84
2022/05/20 05:37:51;;;;;;;8.33;2.40;;;;;;;11.38;65.54;100152.45;1717965;81;21044;-83
2022/05/20 05:40:22;;;;;;;8.63;3.30;;;;;;;11.51;65.09;100149.68;1709530;84;20964;-85
2022/05/20 05:42:49;;;;;;;12.18;3.15;;;;;;;11.64;64.83;100149.52;1710238;82;21000;-82
2022/05/20 05:45:20;;;;;;;11.68;3.47;;;;;;;11.77;65.64;100143.73;1740914;82;20982;-83
2022/05/20 05:47:53;;;;;;;9.08;2.83;;;;;;;11.89;65.13;100136.63;1742751;82;21021;-83
2022/05/20 05:50:20;;;;;;;6.72;2.50;;;;;;;12.06;64.45;100135.55;1716901;82;21040;-83
2022/05/20 05:52:59;;;;;;;7.72;2.00;;;;;;;12.21;63.71;100137.91;1744031;82;21021;-83
2022/05/20 05:55:27;;;;;;;6.47;2.08;;;;;;;12.33;62.83;100136.45;1722819;82;20989;-84
2022/05/20 05:57:54;;;;;;;6.85;2.30;;;;;;;12.43;62.65;100141.05;1714820;84;21018;-84
2022/05/20 06:00:22;;;;;;;6.87;2.37;;;;;;;12.54;62.57;100135.67;1714963;84;21002;-83
2022/05/20 06:02:49;;;;;;;8.18;2.05;;;;;;;12.64;62.26;100133.33;1743414;82;20990;-83
2022/05/20 06:05:15;;;;;;;10.15;2.50;;;;;;;12.74;61.52;100132.27;1708990;84;21039;-82
2022/05/20 06:07:42;;;;;;;4.22;1.80;;;;;;;12.85;61.12;100128.19;1696128;85;20996;-83
2022/05/20 06:10:09;;;;;;;5.75;2.62;;;;;;;12.96;60.79;100125.82;1706955;84;21000;-84
2022/05/20 06:41:59;;;;;;;5.05;1.70;;;;;;;14.51;55.71;100111.59;1789606;80;21114;-82
2022/05/20 06:44:28;;;;;;;5.17;1.85;;;;;;;14.64;55.38;100103.45;1784823;80;21070;-83
2022/05/20 06:46:54;;;;;;;8.15;2.17;;;;;;;14.77;54.66;100098.31;1790376;79;21018;-83
2022/05/20 06:49:21;;;;;;;10.18;2.60;;;;;;;14.89;54.15;100099.75;1790576;79;20939;-81
2022/05/20 06:51:49;;;;;;;5.95;2.08;;;;;;;14.97;54.08;100097.78;1781842;80;20968;-80
2022/05/20 06:54:16;;;;;;;5.58;2.02;;;;;;;15.07;54.14;100095.77;1785543;78;20963;-86
2022/05/20 06:56:44;;;;;;;5.37;1.95;;;;;;;15.19;54.00;100098.05;1781290;78;21026;-84
2022/05/20 06:59:12;;;;;;;5.85;2.30;;;;;;;15.30;53.88;100098.61;1785958;78;21014;-83
2022/05/20 07:01:39;;;;;;;8.40;2.20;;;;;;;15.43;53.77;100087.77;1691867;84;21124;-86
2022/05/20 07:04:07;;;;;;;5.87;2.17;;;;;;;15.57;52.88;100085.59;1706189;84;21047;-84
2022/05/20 07:06:35;;;;;;;4.45;2.10;;;;;;;15.72;52.88;100088.22;1695170;84;21064;-85
2022/05/20 07:09:04;;;;;;;7.47;2.52;;;;;;;15.85;52.78;100087.41;1709667;82;21048;-86
2022/05/20 07:11:31;;;;;;;4.60;2.10;;;;;;;16.01;52.68;100086.02;1712618;83;21002;-85
2022/05/20 07:13:58;;;;;;;6.67;2.05;;;;;;;16.15;52.21;100084.73;1708089;83;21007;-84
2022/05/20 07:16:29;;;;;;;4.75;1.82;;;;;;;16.29;51.91;100083.82;1703462;84;21122;-84
2022/05/20 07:18:57;;;;;;;3.92;1.70;;;;;;;16.39;51.62;100083.91;1708335;82;20988;-85
2022/05/20 07:21:24;;;;;;;4.80;2.05;;;;;;;16.50;51.50;100079.17;1694933;84;21101;-84
2022/05/20 07:23:50;;;;;;;3.60;1.60;;;;;;;16.60;50.46;100074.47;1708497;83;21036;-84
2022/05/20 07:26:17;;;;;;;5.40;1.77;;;;;;;16.75;50.02;100071.79;1693490;84;21119;-85
2022/05/20 07:28:44;;;;;;;5.35;1.80;;;;;;;16.93;49.97;100067.69;1704562;83;21033;-85
2022/05/20 07:31:11;;;;;;;3.80;1.75;;;;;;;17.03;49.40;100065.13;1701096;84;21049;-82
2022/05/20 07:33:38;;;;;;;3.10;1.60;;;;;;;17.16;49.56;100060.73;1700783;82;21048;-81
2022/05/20 07:36:06;;;;;;;2.70;1.52;;;;;;;17.30;48.94;100065.02;1703061;83;21115;-83
2022/05/20 07:38:33;;;;;;;3.98;1.70;;;;;;;17.42;47.59;100063.70;1711671;83;21047;-82
2022/05/20 07:41:01;;;;;;;8.03;1.82;;;;;;;17.59;47.89;100070.95;1692003;85;21114;-84
2022/05/20 07:43:28;;;;;;;6.83;1.80;;;;;;;17.72;47.70;100057.70;1702531;84;20996;-88
2022/05/20 07:45:54;;;;;;;7.00;1.87;;;;;;;17.85;47.17;100055.03;1690560;85;21067;-86
2022/05/20 07:48:21;;;;;;;3.40;1.80;;;;;;;17.96;47.38;100059.85;1694012;83;20965;-80
2022/05/20 07:50:59;;;;;;;6.15;1.50;;;;;;;18.08;47.34;100058.06;1692414;83;21269;-88
2022/05/20 07:53:33;;;;;;;6.28;1.67;;;;;;;18.23;46.60;100061.83;1693436;83;21140;-84
2022/05/20 07:56:16;;;;;;;4.10;1.87;;;;;;;18.35;46.22;100053.89;1667415;84;21058;-80
2022/05/20 07:58:58;;;;;;;4.90;1.80;;;;;;;18.53;44.89;100057.52;1705798;84;21360;-82
2022/05/20 08:01:29;;;;;;;2.30;1.42;;;;;;;18.67;44.85;100050.34;1695943;84;21024;-83
2022/05/20 08:06:46;;;;;;;7.60;1.70;;;;;;;18.95;44.15;100047.37;1677593;84;21030;-86
2022/05/20 08:09:13;;;;;;;4.10;1.87;;;;;;;19.05;43.13;100038.60;1650575;85;21039;-85
2022/05/20 08:11:40;;;;;;;5.47;1.67;;;;;;;19.12;43.31;100037.41;1708523;84;21107;-84
2022/05/20 08:14:07;;;;;;;5.83;1.77;;;;;;;19.28;43.45;100034.46;1698477;83;21012;-86
2022/05/20 08:16:34;;;;;;;5.28;2.30;;;;;;;19.38;41.73;100036.69;1701630;84;21055;-83
2022/05/20 08:19:00;;;;;;;2.70;1.42;;;;;;;19.50;42.44;100027.31;1686720;85;21083;-83
2022/05/20 08:21:28;;;;;;;2.95;1.57;;;;;;;19.62;41.68;100024.97;1700733;84;21051;-84
2022/05/20 08:23:59;;;;;;;4.42;1.60;;;;;;;19.76;42.14;100019.53;1666852;85;21820;-87
2022/05/20 08:26:27;;;;;;;4.72;1.62;;;;;;;19.93;40.38;100000.23;1657920;85;20999;-87
2022/05/20 08:28:54;;;;;;;5.58;1.52;;;;;;;20.15;41.42;100006.61;1674916;85;21090;-83
2022/05/20 08:31:20;;;;;;;3.10;1.45;;;;;;;20.35;40.51;100002.52;1695123;83;21003;-84
2022/05/20 08:33:47;;;;;;;4.90;1.60;;;;;;;20.53;38.79;100000.71;1692569;85;21032;-83
2022/05/20 08:36:14;;;;;;;4.10;1.47;;;;;;;20.70;38.21;99993.72;1700375;82;21054;-83
2022/05/20 08:38:41;;;;;;;7.20;1.72;;;;;;;20.78;37.48;100006.90;1681458;83;21035;-84
2022/05/20 08:41:31;;;;;;;6.78;1.60;;;;;;;20.86;35.45;99999.41;1688604;84;21036;-85
2022/05/20 08:43:59;;;;;;;4.97;1.55;;;;;;;20.98;36.32;99999.70;1689701;84;21064;-84
2022/05/20 08:46:26;;;;;;;5.67;1.60;;;;;;;21.12;36.43;99999.80;1698408;83;20981;-84
2022/05/20 08:48:56;;;;;;;4.08;1.67;;;;;;;21.31;33.37;100000.98;1688737;83;21079;-85
2022/05/20 08:51:25;;;;;;;3.90;1.50;;;;;;;21.42;30.47;99989.80;1695444;83;21020;-84
2022/05/20 08:53:52;;;;;;;6.10;2.02;;;;;;;21.48;32.84;99982.02;1661516;84;21109;-84
2022/05/20 08:56:23;;;;;;;4.40;1.62;;;;;;;21.53;32.21;99981.31;1672387;85;21055;-85
2022/05/20 08:58:55;;;;;;;5.05;1.60;;;;;;;21.56;31.15;99974.02;1707509;82;21103;-83
2022/05/20 09:01:42;;;;;;;3.67;1.60;;;;;;;21.68;31.96;99984.86;1697055;83;21040;-83
2022/05/20 09:04:12;;;;;;;3.62;1.57;;;;;;;21.68;29.31;99979.09;1697228;83;21557;-84
2022/05/20 09:06:56;;;;;;;6.50;2.02;;;;;;;21.74;31.65;99978.73;1670040;84;21027;-82
2022/05/20 09:09:51;;;;;;;2.70;1.57;;;;;;;21.84;30.70;99978.63;1654203;84;21016;-84
2022/05/20 09:12:36;;;;;;;5.22;1.57;;;;;;;21.97;29.31;99975.25;1673282;84;21118;-84
2022/05/20 09:18:19;;;;;;;5.60;1.70;;;;;;;22.09;31.22;99953.83;1699946;83;21040;-84
2022/05/20 09:20:52;;;;;;;3.60;1.50;;;;;;;22.31;30.32;99962.22;1676442;85;21075;-83
2022/05/20 09:23:21;;;;;;;5.55;2.08;;;;;;;22.41;29.82;99951.44;1667397;84;21114;-83
2022/05/20 09:26:05;;;;;;;3.70;2.17;;;;;;;22.50;29.23;99950.50;1673558;85;21159;-81
2022/05/20 09:28:34;;;;;;;;;;;;;;;22.55;28.71;99944.45;1701817;83;21128;-84
2022/05/20 09:31:31;;;;;;;4.92;1.40;;;;;;;22.70;29.55;99942.20;1663458;86;20101;-83
2022/05/20 09:34:15;;;;;;;2.62;1.37;;;;;;;22.76;28.11;99944.47;1669592;86;21570;-82
2022/05/20 09:37:05;;;;;;;3.10;1.62;;;;;;;22.83;28.12;99940.95;1692168;84;21095;-84
2022/05/20 09:39:37;;;;;;;8.25;1.57;;;;;;;22.90;28.13;99936.97;1679238;84;21102;-82
2022/05/20 09:42:21;;;;;;;5.12;2.50;;;;;;;23.00;28.08;99931.46;1693113;83;21082;-84
2022/05/20 09:44:55;;;;;;;4.05;1.80;;;;;;;23.05;28.71;99925.89;1662898;85;21035;-82
2022/05/20 09:50:41;;;;;;;4.65;1.60;;;;;;;23.16;28.66;99916.78;1690627;80;21114;-84
2022/05/20 09:53:26;;;;;;;5.47;1.50;;;;;;;23.36;27.43;99910.18;1649588;86;21090;-85
2022/05/20 09:55:58;;;;;;;5.37;1.50;;;;;;;23.57;28.61;99909.71;1660945;84;21050;-85
2022/05/20 09:58:27;;;;;;;5.12;1.42;;;;;;;23.76;27.08;99904.05;1658771;84;21086;-83
2022/05/20 10:01:04;;;;;;;3.35;1.47;;;;;;;23.77;21.62;99909.71;1669783;84;21314;-84
2022/05/20 10:03:43;;;;;;;5.87;1.52;;;;;;;23.84;25.98;99911.53;1665583;85;21526;-84
2022/05/20 10:06:35;;;;;;;4.70;1.20;;;;;;;23.90;24.00;99907.98;1662387;85;21175;-85
2022/05/20 10:09:07;;;;;;;5.47;1.50;;;;;;;23.88;25.52;99895.28;1673826;84;21019;-83
2022/05/20 10:11:56;;;;;;;4.47;1.62;;;;;;;23.99;25.94;99890.55;1680733;84;21007;-84
2022/05/20 10:14:31;;;;;;;3.85;1.67;;;;;;;24.14;25.63;99892.17;1672506;84;20999;-82
2022/05/20 10:17:22;;;;;;;6.58;1.40;;;;;;;24.35;25.24;99892.50;1675745;84;21624;-84
2022/05/20 10:20:02;;;;;;;2.98;1.30;;;;;;;24.52;24.74;99890.00;1673035;84;21068;-85
2022/05/20 10:22:49;;;;;;;4.20;1.70;;;;;;;24.70;23.19;99878.54;1686335;84;21291;-86
2022/05/20 10:25:30;;;;;;;5.30;2.30;;;;;;;24.76;24.92;99871.94;1658987;84;21083;-84
2022/05/20 10:32:33;;;;;;;5.45;1.65;;;;;;;24.70;25.01;99863.92;1658944;85;21549;-85
2022/05/20 10:33:37;;;;;;;4.72;1.70;;;;;;;24.91;24.05;99862.86;1659935;85;21186;-86
2022/05/20 10:36:41;;;;;;;2.87;1.52;;;;;;;24.99;24.79;99848.52;1655013;85;21218;-86
2022/05/20 10:39:39;;;;;;;4.00;1.45;;;;;;;25.09;24.76;99845.16;1648875;86;21053;-86
2022/05/20 10:42:30;;;;;;;3.22;1.55;;;;;;;25.16;24.82;99839.28;1620137;86;21625;-84
2022/05/20 10:51:37;;;;;;;7.87;2.17;;;;;;;25.44;24.26;99841.25;1618464;87;21109;-84
2022/05/20 10:54:34;;;;;;;3.40;1.67;;;;;;;25.54;24.05;99832.93;1626979;87;21086;-83
2022/05/20 10:57:41;;;;;;;3.83;1.57;;;;;;;25.63;23.74;99831.89;1636001;87;21050;-86
2022/05/20 11:00:21;;;;;;;6.28;1.67;;;;;;;25.55;24.16;99829.81;1628531;87;21077;-86
2022/05/20 11:03:21;;;;;;;4.85;1.57;;;;;;;25.67;23.82;99822.70;1628711;87;21050;-87
2022/05/20 11:06:27;;;;;;;7.12;1.32;;;;;;;25.69;23.73;99816.28;1629901;87;21434;-85
2022/05/20 11:09:11;;;;;;;6.12;1.70;;;;;;;25.67;23.09;99814.72;1632264;87;21072;-82
2022/05/20 11:11:57;;;;;;;8.28;1.82;;;;;;;25.73;22.35;99812.42;1624839;87;21538;-84
2022/05/20 11:14:57;;;;;;;2.70;1.40;;;;;;;25.84;23.49;99809.41;1634613;87;21078;-83
2022/05/20 11:17:50;;;;;;;7.28;1.50;;;;;;;25.93;23.57;99785.60;1630495;87;21090;-85
2022/05/20 11:20:37;;;;;;;3.25;1.35;;;;;;;26.05;23.99;99785.13;1627103;87;21125;-86
2022/05/20 11:23:32;;;;;;;3.42;1.52;;;;;;;26.21;23.43;99784.77;1628362;87;21075;-85
2022/05/20 11:26:14;;;;;;;4.08;1.57;;;;;;;26.27;23.17;99780.77;1627936;87;21117;-81
2022/05/20 11:29:07;;;;;;;4.22;1.67;;;;;;;26.43;22.77;99775.05;1623965;87;21082;-82
2022/05/20 11:32:03;;;;;;;5.00;1.57;;;;;;;26.54;22.99;99769.22;1628508;87;21571;-82
2022/05/20 11:34:47;;;;;;;5.30;1.60;;;;;;;26.59;22.98;99760.87;1645326;85;21673;-80
2022/05/20 11:37:37;;;;;;;3.67;1.37;;;;;;;26.68;21.58;99769.47;1649315;85;21086;-81
2022/05/20 11:40:10;;;;;;;4.80;2.22;;;;;;;26.79;22.53;99765.41;1649965;85;21098;-82
2022/05/20 11:42:51;;;;;;;4.75;2.30;;;;;;;26.98;22.58;99762.09;1650630;86;21096;-84
2022/05/20 11:45:41;;;;;;;4.92;1.50;;;;;;;27.19;22.62;99747.41;1650404;85;21067;-84
2022/05/20 11:48:33;;;;;;;7.00;1.50;;;;;;;27.42;21.29;99739.34;1651805;85;21064;-83
2022/05/20 11:51:37;;;;;;;4.28;1.47;;;;;;;27.64;21.50;99744.17;1651809;85;21081;-82
2022/05/20 11:54:27;;;;;;;4.50;1.22;;;;;;;27.78;20.14;99744.66;1670792;84;21083;-80
2022/05/20 11:57:05;;;;;;;4.85;1.52;;;;;;;27.84;18.39;99735.27;1661379;84;21075;-83
2022/05/20 11:59:42;;;;;;;3.33;1.10;;;;;;;27.91;19.15;99736.47;1669017;84;21503;-82
2022/05/20 12:02:14;;;;;;;2.87;1.17;;;;;;;28.05;18.94;99730.38;1670420;84;21024;-81
2022/05/20 12:04:42;;;;;;;6.83;1.40;;;;;;;28.28;18.22;99730.53;1677688;84;21182;-82
2022/05/20 12:07:16;;;;;;;2.40;1.30;;;;;;;28.46;19.70;99711.99;1675633;84;21048;-82
2022/05/20 12:09:47;;;;;;;3.65;1.25;;;;;;;28.80;17.91;99716.98;1668095;84;21312;-81
2022/05/20 12:12:33;;;;;;;4.60;1.22;;;;;;;28.87;18.79;99719.47;1662864;84;21020;-83
2022/05/20 12:15:14;;;;;;;9.00;1.40;;;;;;;29.24;18.88;99709.88;1673027;84;21036;-88
2022/05/20 12:17:48;;;;;;;1.80;1.12;;;;;;;29.72;18.00;99711.13;1667444;84;20985;-84
2022/05/20 12:26:15;;;;;;;3.10;1.32;;;;;;;31.64;17.48;99687.19;1673689;84;21028;-82
2022/05/20 12:28:41;;;;;;;3.27;1.10;;;;;;;32.33;15.31;99684.94;1675293;83;21106;-80
2022/05/20 12:31:23;;;;;;;3.90;1.20;;;;;;;32.97;15.82;99679.33;1670720;84;20977;-84
2022/05/20 12:34:06;;;;;;;1.98;1.00;;;;;;;33.08;13.90;99684.34;1674853;82;21102;-83
2022/05/20 12:36:40;;;;;;;6.08;1.90;;;;;;;33.14;14.60;99669.91;1660735;84;21031;-81
2022/05/20 12:39:15;;;;;;;4.87;1.60;;;;;;;33.89;15.77;99664.16;1666249;84;21108;-82
2022/05/20 12:41:56;;;;;;;4.25;1.22;;;;;;;34.37;14.64;99663.58;1668356;84;21021;-81
2022/05/20 12:44:31;;;;;;;4.65;1.25;;;;;;;34.91;14.54;99663.20;1668682;84;21075;-83
2022/05/20 12:47:13;;;;;;;2.95;1.37;;;;;;;34.95;13.57;99655.06;1720819;81;21061;-83
2022/05/20 12:49:51;;;;;;;2.40;1.27;;;;;;;35.18;13.82;99649.13;1716897;80;21115;-83
2022/05/20 12:52:26;;;;;;;4.78;1.30;;;;;;;35.51;13.22;99641.17;1695447;83;21088;-85
2022/05/20 12:55:00;;;;;;;3.05;1.20;;;;;;;35.83;13.26;99639.95;1687312;80;21101;-81
2022/05/20 12:57:34;;;;;;;5.28;1.47;;;;;;;35.95;12.85;99638.45;1687305;81;21116;-84
2022/05/20 13:00:06;;;;;;;4.67;1.30;;;;;;;36.39;13.12;99639.34;1685095;81;21189;-84
2022/05/20 13:02:44;;;;;;;4.58;1.30;;;;;;;36.14;13.79;99632.09;1705509;80;21088;-83
2022/05/20 13:05:24;;;;;;;4.20;1.30;;;;;;;36.45;12.95;99634.55;1706247;81;21002;-81
2022/05/20 13:07:54;;;;;;;3.27;1.40;;;;;;;36.66;12.64;99620.69;1721255;82;21045;-86
2022/05/20 13:10:39;;;;;;;3.10;1.40;;;;;;;36.48;13.00;99620.59;1714331;82;21048;-84